X

Important NEWS



New Hub Active

Miami is our new hub! Old members can request transfer via hr@dlxairways.net

Thank you very much and have nice flight.


Deluxe Airways.

X

Tours



Hello again, we created one nice test tour for all pilots to attend. also this is ment to be testing of our tour system

Available Tours

If you find some issues please inform us.

Thank you very much and have nice flight.


Deluxe Airways.

 METAR AND TAF INFORMATION
ArrayMETAR FOR LYTV
172473440 4 LYTV 121630Z 20004KT 160V250 9999 FEW033 20/12 Q1009 NOSIG LYTV 2021-05-12T16:30:00Z 42.4 18.72 20.0 12.0 200 4 6.21 29.793306 TRUE VFR METAR 3.0 LYTV 121600Z 15006KT 120V190 9999 FEW030 21/12 Q1009 NOSIG LYTV 2021-05-12T16:00:00Z 42.4 18.72 21.0 12.0 150 6 6.21 29.793306 TRUE VFR METAR 3.0 LYTV 121530Z 17006KT 140V220 9999 FEW030 20/12 Q1009 NOSIG LYTV 2021-05-12T15:30:00Z 42.4 18.72 20.0 12.0 170 6 6.21 29.793306 TRUE VFR METAR 3.0 LYTV 121500Z 21005KT 170V260 9999 FEW030 20/13 Q1009 NOSIG LYTV 2021-05-12T15:00:00Z 42.4 18.72 20.0 13.0 210 5 6.21 29.793306 TRUE VFR METAR 3.0

 AIRPORT MAP

 RUNWAY INFORMATION
Runway 14 Runway length 8208 ft Runway width 148 ft
Runway elevation 7 ft Runway displaced threshold 0 ft Runway heading 139
Runway 32 Runway length 8208 ft Runway width 148 ft
Runway elevation 16 ft Runway displaced threshold 0 ft Runway heading 319

 AIRPORT FREQUENCIES
Type ARR Name APP Frequency 118 MHZ
Type TWR Name TWR Frequency 118 MHZ

 AIRPORT NEAR NAVIGATION AIDS
Type NDB Name Tivat Frequency 345 KHZ



Powered by Virtual Airlines Manager [v2.6.2]

Template code change by DeluxeAir